Terminal Aerodrome Forecast
Issued by NWS

Home | Current Version | Previous Version | Text Only | Print | Product List | Glossary On
Versions: 1 2 3 4 5 6 7 8 9 10 11 12 13 14 15 16 17 18 19 20 21 22 23 24 25 26 27 28 29 30 31 32 33 34 35 36 37 38 39 40 41 42 43 44 45 46 47 48 49 50
561
FTUS43 KLOT 231325 AAA
TAFGYY
TAF AMD
KGYY 231325Z 2313/2412 30012KT 3SM -SN BR SCT007 BKN012 OVC025
      TEMPO 2313/2314 1 1/2SM -SN BR BKN006
     FM231400 32013G21KT P6SM -SHSN OVC020
     FM231600 32015G23KT P6SM OVC020
     FM240000 31012KT P6SM OVC025
     FM240400 31005KT P6SM BKN025 BKN200=

USA.gov is the U.S. government's official web portal to all federal, state and local government web resources and services.